createdAt,value
2023-04-09T00:00:49.184Z,28.56
2023-04-09T00:01:49.281Z,28.58
2023-04-09T00:02:49.389Z,28.53
2023-04-09T00:03:49.467Z,28.55
2023-04-09T00:04:49.499Z,28.50
2023-04-09T00:05:49.524Z,28.53
2023-04-09T00:06:49.595Z,28.52
2023-04-09T00:07:49.656Z,28.56
2023-04-09T00:08:49.885Z,28.52
2023-04-09T00:09:49.743Z,28.53
2023-04-09T00:10:49.809Z,28.55
2023-04-09T00:11:49.933Z,28.50
2023-04-09T00:12:49.945Z,28.49
2023-04-09T00:13:49.984Z,28.59
2023-04-09T00:14:50.060Z,28.56
2023-04-09T00:15:50.123Z,28.52
2023-04-09T00:16:50.194Z,28.55
2023-04-09T00:17:50.319Z,28.52
2023-04-09T00:18:50.452Z,28.54
2023-04-09T00:19:50.334Z,28.55
2023-04-09T00:20:50.416Z,28.49
2023-04-09T00:21:50.485Z,28.53
2023-04-09T00:22:50.570Z,28.53
2023-04-09T00:23:51.492Z,28.57
2023-04-09T00:24:50.694Z,28.53
2023-04-09T00:25:50.732Z,28.53
2023-04-09T00:26:50.783Z,28.54
2023-04-09T00:27:50.859Z,28.53
2023-04-09T00:28:51.139Z,28.53
2023-04-09T00:29:51.005Z,28.53
2023-04-09T00:30:51.002Z,28.50
2023-04-09T00:31:51.123Z,28.57
2023-04-09T00:32:51.178Z,28.56
2023-04-09T00:33:51.231Z,28.57
2023-04-09T00:34:51.241Z,28.57
2023-04-09T00:35:51.408Z,28.59
2023-04-09T00:36:51.380Z,28.54
2023-04-09T00:37:52.005Z,28.56
2023-04-09T00:38:51.840Z,28.54
2023-04-09T00:39:51.527Z,28.59
2023-04-09T00:40:51.597Z,28.56
2023-04-09T00:41:51.627Z,28.53
2023-04-09T00:42:51.693Z,28.59
2023-04-09T00:43:51.785Z,28.54
2023-04-09T00:44:51.837Z,28.56
2023-04-09T00:45:51.882Z,28.57
2023-04-09T00:46:51.869Z,28.57
2023-04-09T00:47:52.027Z,28.57
2023-04-09T00:48:52.260Z,28.56
2023-04-09T00:49:52.123Z,28.52
2023-04-09T00:50:52.154Z,28.56
2023-04-09T00:51:52.190Z,28.59
2023-04-09T00:52:52.237Z,28.58
2023-04-09T00:53:52.299Z,28.60
2023-04-09T00:54:52.381Z,28.57
2023-04-09T00:55:52.401Z,28.56
2023-04-09T00:56:52.470Z,28.56
2023-04-09T00:57:52.529Z,28.58
2023-04-09T00:58:52.816Z,28.56
2023-04-09T00:59:52.618Z,28.58
2023-04-09T01:00:52.742Z,28.58
2023-04-09T01:01:52.721Z,28.56
2023-04-09T01:02:52.777Z,28.51
2023-04-09T01:03:52.824Z,28.54
2023-04-09T01:04:52.760Z,28.56
2023-04-09T01:05:52.799Z,28.57
2023-04-09T01:06:52.858Z,28.57
2023-04-09T01:07:52.914Z,28.57
2023-04-09T01:08:53.061Z,28.57
2023-04-09T01:09:53.037Z,28.57
2023-04-09T01:10:53.028Z,28.60
2023-04-09T01:11:53.105Z,28.56
2023-04-09T01:12:53.130Z,28.57
2023-04-09T01:13:53.129Z,28.58
2023-04-09T01:14:53.197Z,28.58
2023-04-09T01:15:53.216Z,28.56
2023-04-09T01:16:53.370Z,28.61
2023-04-09T01:17:53.351Z,28.58
2023-04-09T01:18:53.534Z,28.56
2023-04-09T01:19:53.363Z,28.60
2023-04-09T01:20:53.421Z,28.57
2023-04-09T01:21:53.460Z,28.58
2023-04-09T01:22:53.486Z,28.59
2023-04-09T01:23:53.547Z,28.57
2023-04-09T01:24:53.619Z,28.54
2023-04-09T01:25:53.662Z,28.58
2023-04-09T01:26:53.685Z,28.60
2023-04-09T01:27:53.694Z,28.60
2023-04-09T01:28:54.332Z,28.57
2023-04-09T01:29:53.805Z,28.60
2023-04-09T01:30:53.917Z,28.52
2023-04-09T01:31:53.873Z,28.57
2023-04-09T01:32:53.991Z,28.57
2023-04-09T01:33:53.977Z,28.61
2023-04-09T01:34:53.982Z,28.60
2023-04-09T01:35:56.598Z,28.59
2023-04-09T01:36:54.222Z,28.54
2023-04-09T01:37:54.220Z,28.60
2023-04-09T01:38:54.542Z,28.57
2023-04-09T01:39:54.328Z,28.57
2023-04-09T01:40:54.352Z,28.61
2023-04-09T01:41:54.373Z,28.58
2023-04-09T01:42:54.437Z,28.57
2023-04-09T01:43:54.479Z,28.59
2023-04-09T01:44:54.502Z,28.59
2023-04-09T01:45:54.626Z,28.61
2023-04-09T01:46:54.572Z,28.57
2023-04-09T01:47:54.708Z,28.59
2023-04-09T01:48:54.855Z,28.55
2023-04-09T01:49:54.720Z,28.58
2023-04-09T01:50:54.757Z,28.60
2023-04-09T01:51:54.757Z,28.59
2023-04-09T01:52:54.841Z,28.58
2023-04-09T01:53:54.896Z,28.57
2023-04-09T01:54:54.907Z,28.57
2023-04-09T01:55:54.929Z,28.61
2023-04-09T01:56:54.953Z,28.57
2023-04-09T01:57:55.027Z,28.55
2023-04-09T01:58:55.210Z,28.61
2023-04-09T01:59:55.131Z,28.54
2023-04-09T02:00:55.085Z,28.56
2023-04-09T02:01:55.229Z,28.57
2023-04-09T02:02:55.249Z,28.58
2023-04-09T02:03:55.364Z,28.57
2023-04-09T02:04:55.095Z,28.55
2023-04-09T02:05:55.129Z,28.61
2023-04-09T02:06:55.131Z,28.54
2023-04-09T02:07:55.096Z,28.58
2023-04-09T02:08:55.136Z,28.61
2023-04-09T02:09:55.149Z,28.59
2023-04-09T02:10:55.162Z,28.63
2023-04-09T02:11:55.139Z,28.61
2023-04-09T02:12:55.205Z,28.61
2023-04-09T02:13:55.299Z,28.62
2023-04-09T02:14:55.293Z,28.57
2023-04-09T02:15:55.587Z,28.59
2023-04-09T02:16:55.382Z,28.61
2023-04-09T02:17:55.507Z,28.56
2023-04-09T02:18:55.519Z,28.56
2023-04-09T02:19:55.528Z,28.63
2023-04-09T02:20:55.582Z,28.58
2023-04-09T02:21:55.559Z,28.59
2023-04-09T02:22:55.649Z,28.59
2023-04-09T02:23:55.724Z,28.61
2023-04-09T02:24:55.733Z,28.58
2023-04-09T02:25:55.814Z,28.55
2023-04-09T02:26:55.826Z,28.65
2023-04-09T02:27:55.880Z,28.61
2023-04-09T02:28:55.967Z,28.61
2023-04-09T02:29:55.959Z,28.61
2023-04-09T02:30:56.044Z,28.56
2023-04-09T02:31:56.124Z,28.61
2023-04-09T02:32:56.158Z,28.56
2023-04-09T02:33:56.184Z,28.58
2023-04-09T02:34:56.236Z,28.61
2023-04-09T02:35:56.264Z,28.61
2023-04-09T02:36:56.339Z,28.53
2023-04-09T02:37:56.333Z,28.58
2023-04-09T02:38:56.462Z,28.58
2023-04-09T02:39:56.490Z,28.58
2023-04-09T02:40:56.563Z,28.63
2023-04-09T02:41:56.552Z,28.56
2023-04-09T02:42:56.595Z,28.58
2023-04-09T02:43:56.658Z,28.58
2023-04-09T02:44:56.675Z,28.59
2023-04-09T02:45:56.832Z,28.59
2023-04-09T02:46:56.817Z,28.63
2023-04-09T02:47:56.897Z,28.60
2023-04-09T02:48:56.876Z,28.65
2023-04-09T02:49:56.973Z,28.60
2023-04-09T02:50:56.993Z,28.59
2023-04-09T02:51:57.023Z,28.56
2023-04-09T02:52:57.088Z,28.63
2023-04-09T02:53:57.637Z,28.58
2023-04-09T02:54:57.169Z,28.60
2023-04-09T02:55:57.303Z,28.60
2023-04-09T02:56:57.270Z,28.60
2023-04-09T02:57:57.333Z,28.60
2023-04-09T02:58:58.061Z,28.58
2023-04-09T02:59:57.409Z,28.60
2023-04-09T03:00:57.452Z,28.59
2023-04-09T03:01:57.557Z,28.62
2023-04-09T03:02:57.603Z,28.56
2023-04-09T03:03:57.688Z,28.58
2023-04-09T03:04:57.632Z,28.62
2023-04-09T03:05:57.741Z,28.59
2023-04-09T03:06:57.780Z,28.57
2023-04-09T03:07:57.822Z,28.62
2023-04-09T03:08:57.955Z,28.62
2023-04-09T03:09:57.908Z,28.63
2023-04-09T03:10:58.045Z,28.53
2023-04-09T03:11:58.054Z,28.59
2023-04-09T03:12:58.061Z,28.63
2023-04-09T03:13:58.148Z,28.60
2023-04-09T03:14:58.161Z,28.62
2023-04-09T03:15:58.267Z,28.57
2023-04-09T03:16:58.284Z,28.62
2023-04-09T03:17:58.413Z,28.60
2023-04-09T03:18:58.443Z,28.60
2023-04-09T03:19:58.462Z,28.63
2023-04-09T03:20:58.524Z,28.65
2023-04-09T03:21:58.547Z,28.62
2023-04-09T03:22:58.549Z,28.59
2023-04-09T03:23:58.623Z,28.62
2023-04-09T03:24:58.691Z,28.64
2023-04-09T03:25:58.720Z,28.60
2023-04-09T03:26:58.721Z,28.63
2023-04-09T03:27:58.776Z,28.60
2023-04-09T03:28:58.831Z,28.60
2023-04-09T03:29:58.859Z,28.63
2023-04-09T03:30:58.955Z,28.60
2023-04-09T03:31:58.937Z,28.66
2023-04-09T03:32:59.057Z,28.57
2023-04-09T03:33:59.075Z,28.67
2023-04-09T03:34:59.147Z,28.60
2023-04-09T03:35:59.238Z,28.64
2023-04-09T03:36:59.239Z,28.62
2023-04-09T03:37:59.242Z,28.59
2023-04-09T03:38:59.324Z,28.63
2023-04-09T03:39:59.392Z,28.66
2023-04-09T03:40:59.421Z,28.63
2023-04-09T03:41:59.497Z,28.61
2023-04-09T03:42:59.498Z,28.64
2023-04-09T03:43:59.563Z,28.66
2023-04-09T03:44:59.605Z,28.66
2023-04-09T03:45:59.665Z,28.66
2023-04-09T03:46:59.809Z,28.64
2023-04-09T03:47:59.753Z,28.63
2023-04-09T03:48:59.768Z,28.60
2023-04-09T03:49:59.843Z,28.60
2023-04-09T03:50:59.910Z,28.61
2023-04-09T03:51:59.929Z,28.60
2023-04-09T03:52:59.981Z,28.58
2023-04-09T03:54:00.036Z,28.64
2023-04-09T03:55:00.111Z,28.67
2023-04-09T03:56:00.204Z,28.63
2023-04-09T03:57:00.155Z,28.66
2023-04-09T03:58:00.222Z,28.64
2023-04-09T03:59:00.260Z,28.64
2023-04-09T04:00:00.337Z,28.60
2023-04-09T04:01:00.408Z,28.63
2023-04-09T04:02:00.474Z,28.67
2023-04-09T04:03:00.629Z,28.63
2023-04-09T04:04:00.666Z,28.63
2023-04-09T04:05:00.544Z,28.57
2023-04-09T04:06:00.595Z,28.61
2023-04-09T04:07:00.645Z,28.61
2023-04-09T04:08:00.733Z,28.64
2023-04-09T04:09:00.788Z,28.60
2023-04-09T04:10:00.832Z,28.67
2023-04-09T04:11:00.894Z,28.63
2023-04-09T04:12:00.960Z,28.67
2023-04-09T04:13:01.033Z,28.64
2023-04-09T04:14:01.043Z,28.63
2023-04-09T04:15:01.110Z,28.65
2023-04-09T04:16:01.210Z,28.61
2023-04-09T04:17:01.220Z,28.63
2023-04-09T04:18:01.293Z,28.61
2023-04-09T04:19:01.347Z,28.65
2023-04-09T04:20:01.415Z,28.67
2023-04-09T04:21:01.436Z,28.64
2023-04-09T04:22:01.495Z,28.67
2023-04-09T04:23:01.607Z,28.67
2023-04-09T04:24:01.656Z,28.62
2023-04-09T04:25:01.753Z,28.68
2023-04-09T04:26:01.730Z,28.65
2023-04-09T04:27:01.795Z,28.65
2023-04-09T04:28:01.818Z,28.63
2023-04-09T04:29:01.904Z,28.60
2023-04-09T04:30:01.935Z,28.63
2023-04-09T04:31:01.980Z,28.63
2023-04-09T04:32:02.105Z,28.64
2023-04-09T04:33:02.121Z,28.64
2023-04-09T04:34:02.305Z,28.65
2023-04-09T04:35:02.156Z,28.62
2023-04-09T04:36:02.244Z,28.62
2023-04-09T04:37:02.338Z,28.61
2023-04-09T04:38:02.375Z,28.68
2023-04-09T04:39:02.403Z,28.55
2023-04-09T04:40:02.451Z,28.61
2023-04-09T04:41:02.481Z,28.67
2023-04-09T04:42:02.541Z,28.61
2023-04-09T04:43:02.557Z,28.64
2023-04-09T04:44:02.641Z,28.62
2023-04-09T04:45:02.704Z,28.65
2023-04-09T04:46:02.735Z,28.62
2023-04-09T04:47:02.733Z,28.61
2023-04-09T04:48:02.865Z,28.61
2023-04-09T04:49:02.876Z,28.64
2023-04-09T04:50:02.961Z,28.61
2023-04-09T04:51:02.978Z,28.68
2023-04-09T04:52:03.058Z,28.64
2023-04-09T04:53:03.115Z,28.61
2023-04-09T04:54:03.205Z,28.62
2023-04-09T04:55:03.250Z,28.64
2023-04-09T04:56:03.275Z,28.65
2023-04-09T04:57:03.314Z,28.62
2023-04-09T04:58:03.353Z,28.58
2023-04-09T04:59:03.432Z,28.64
2023-04-09T05:00:03.514Z,28.61
2023-04-09T05:01:04.210Z,28.60
2023-04-09T05:02:03.640Z,28.64
2023-04-09T05:03:03.747Z,28.61
2023-04-09T05:04:03.771Z,28.68
2023-04-09T05:05:03.731Z,28.65
2023-04-09T05:06:03.818Z,28.62
2023-04-09T05:07:03.950Z,28.62
2023-04-09T05:08:03.890Z,28.67
2023-04-09T05:09:04.018Z,28.65
2023-04-09T05:10:03.991Z,28.68
2023-04-09T05:11:04.082Z,28.61
2023-04-09T05:12:04.140Z,28.62
2023-04-09T05:13:04.200Z,28.65
2023-04-09T05:14:04.251Z,28.65
2023-04-09T05:15:05.359Z,28.61
2023-04-09T05:16:04.405Z,28.63
2023-04-09T05:17:04.433Z,28.58
2023-04-09T05:18:04.446Z,28.64
2023-04-09T05:19:04.513Z,28.65
2023-04-09T05:20:04.532Z,28.61
2023-04-09T05:21:04.596Z,28.62
2023-04-09T05:22:04.683Z,28.62
2023-04-09T05:23:04.715Z,28.62
2023-04-09T05:24:04.780Z,28.65
2023-04-09T05:25:04.824Z,28.58
2023-04-09T05:26:04.926Z,28.61
2023-04-09T05:27:04.908Z,28.65
2023-04-09T05:28:04.962Z,28.67
2023-04-09T05:29:05.034Z,28.61
2023-04-09T05:30:05.185Z,28.62
2023-04-09T05:31:05.210Z,28.62
2023-04-09T05:32:05.164Z,28.63
2023-04-09T05:33:05.284Z,28.59
2023-04-09T05:34:05.304Z,28.62
2023-04-09T05:35:05.328Z,28.66
2023-04-09T05:36:05.471Z,28.58
2023-04-09T05:37:05.456Z,28.64
2023-04-09T05:38:05.486Z,28.61
2023-04-09T05:39:05.560Z,28.65
2023-04-09T05:40:05.622Z,28.62
2023-04-09T05:41:05.640Z,28.62
2023-04-09T05:42:05.683Z,28.65
2023-04-09T05:43:05.713Z,28.67
2023-04-09T05:44:05.795Z,28.61
2023-04-09T05:45:05.818Z,28.62
2023-04-09T05:46:05.919Z,28.65
2023-04-09T05:47:05.899Z,28.59
2023-04-09T05:48:06.062Z,28.61
2023-04-09T05:49:06.001Z,28.64
2023-04-09T05:50:06.047Z,28.61
2023-04-09T05:51:06.161Z,28.63
2023-04-09T05:52:06.208Z,28.63
2023-04-09T05:53:06.224Z,28.65
2023-04-09T05:54:06.305Z,28.68
2023-04-09T05:55:06.305Z,28.62
2023-04-09T05:56:06.388Z,28.65
2023-04-09T05:57:06.454Z,28.69
2023-04-09T05:58:06.465Z,28.68
2023-04-09T05:59:06.516Z,28.63
2023-04-09T06:00:06.568Z,28.64
2023-04-09T06:01:07.143Z,28.61
2023-04-09T06:02:06.766Z,28.63
2023-04-09T06:03:06.799Z,28.65
2023-04-09T06:04:06.924Z,28.67
2023-04-09T06:05:06.806Z,28.59
2023-04-09T06:06:06.873Z,28.62
2023-04-09T06:07:06.887Z,28.62
2023-04-09T06:08:06.945Z,28.65
2023-04-09T06:09:07.013Z,28.65
2023-04-09T06:10:07.039Z,28.59
2023-04-09T06:11:07.083Z,28.62
2023-04-09T06:12:07.143Z,28.62
2023-04-09T06:13:07.214Z,28.59
2023-04-09T06:14:07.228Z,28.62
2023-04-09T06:15:07.228Z,28.61
2023-04-09T06:16:07.325Z,28.59
2023-04-09T06:17:07.313Z,28.65
2023-04-09T06:18:07.461Z,28.61
2023-04-09T06:19:07.382Z,28.62
2023-04-09T06:20:07.450Z,28.63
2023-04-09T06:21:07.439Z,28.62
2023-04-09T06:22:07.472Z,28.59
2023-04-09T06:23:07.537Z,28.57
2023-04-09T06:24:07.557Z,28.62
2023-04-09T06:25:07.567Z,28.62
2023-04-09T06:26:07.661Z,28.61
2023-04-09T06:27:07.659Z,28.58
2023-04-09T06:28:07.707Z,28.59
2023-04-09T06:29:07.772Z,28.65
2023-04-09T06:30:07.780Z,28.61
2023-04-09T06:31:07.837Z,28.64
2023-04-09T06:32:07.815Z,28.65
2023-04-09T06:33:07.923Z,28.61
2023-04-09T06:34:07.908Z,28.67
2023-04-09T06:35:09.797Z,28.63
2023-04-09T06:36:07.998Z,28.63
2023-04-09T06:37:07.916Z,28.58
2023-04-09T06:38:07.986Z,28.61
2023-04-09T06:39:07.951Z,28.58
2023-04-09T06:40:08.901Z,28.62
2023-04-09T06:41:07.890Z,28.65
2023-04-09T06:42:07.906Z,28.61
2023-04-09T06:43:08.693Z,28.61
2023-04-09T06:44:08.760Z,28.57
2023-04-09T06:45:07.949Z,28.59
2023-04-09T06:46:07.893Z,28.57
2023-04-09T06:47:07.843Z,28.62
2023-04-09T06:48:07.876Z,28.58
2023-04-09T06:49:07.913Z,28.61
2023-04-09T06:50:07.887Z,28.62
2023-04-09T06:51:07.862Z,28.58
2023-04-09T06:52:07.907Z,28.61
2023-04-09T06:53:07.813Z,28.65
2023-04-09T06:54:07.807Z,28.57
2023-04-09T06:55:07.837Z,28.57
2023-04-09T06:56:07.793Z,28.57
2023-04-09T06:57:07.790Z,28.58
2023-04-09T06:58:07.929Z,28.60
2023-04-09T06:59:07.809Z,28.57
2023-04-09T07:00:07.819Z,28.54
2023-04-09T07:01:07.772Z,28.55
2023-04-09T07:02:07.915Z,28.60
2023-04-09T07:03:07.836Z,28.54
2023-04-09T07:04:07.851Z,28.55
2023-04-09T07:05:07.761Z,28.58
2023-04-09T07:06:07.719Z,28.51
2023-04-09T07:07:07.747Z,28.58
2023-04-09T07:08:07.765Z,28.57
2023-04-09T07:09:07.792Z,28.58
2023-04-09T07:10:07.804Z,28.54
2023-04-09T07:11:07.841Z,28.58
2023-04-09T07:12:07.949Z,28.58
2023-04-09T07:13:07.925Z,28.58
2023-04-09T07:14:07.957Z,28.57
2023-04-09T07:15:08.206Z,28.51
2023-04-09T07:16:08.037Z,28.55
2023-04-09T07:17:08.296Z,28.54
2023-04-09T07:18:08.118Z,28.56
2023-04-09T07:19:14.720Z,28.57
2023-04-09T07:20:08.136Z,28.53
2023-04-09T07:21:08.097Z,28.54
2023-04-09T07:22:08.066Z,28.57
2023-04-09T07:23:08.084Z,28.51
2023-04-09T07:24:08.069Z,28.56
2023-04-09T07:25:08.041Z,28.53
2023-04-09T07:26:08.050Z,28.53
2023-04-09T07:27:08.051Z,28.52
2023-04-09T07:28:08.024Z,28.53
2023-04-09T07:29:08.042Z,28.53
2023-04-09T07:30:08.740Z,28.49
2023-04-09T07:31:08.024Z,28.49
2023-04-09T07:32:08.058Z,28.47
2023-04-09T07:33:08.102Z,28.50
2023-04-09T07:34:08.035Z,28.52
2023-04-09T07:35:07.979Z,28.47
2023-04-09T07:36:08.009Z,28.46
2023-04-09T07:37:07.985Z,28.46
2023-04-09T07:38:07.968Z,28.45
2023-04-09T07:39:07.979Z,28.42
2023-04-09T07:40:07.951Z,28.46
2023-04-09T07:41:07.971Z,28.42
2023-04-09T07:42:07.924Z,28.39
2023-04-09T07:43:07.930Z,28.41
2023-04-09T07:44:08.217Z,28.44
2023-04-09T07:45:07.944Z,28.41
2023-04-09T07:46:07.919Z,28.41
2023-04-09T07:47:08.002Z,28.38
2023-04-09T07:48:07.908Z,28.35
2023-04-09T07:49:07.903Z,28.34
2023-04-09T07:50:07.906Z,28.37
2023-04-09T07:51:07.939Z,28.37
2023-04-09T07:52:07.985Z,28.31
2023-04-09T07:53:08.030Z,28.36
2023-04-09T07:54:08.061Z,28.36
2023-04-09T07:55:08.119Z,28.36
2023-04-09T07:56:08.138Z,28.31
2023-04-09T07:57:08.202Z,28.33
2023-04-09T07:58:08.229Z,28.31
2023-04-09T07:59:08.328Z,28.24
2023-04-09T08:00:09.184Z,28.33
2023-04-09T08:01:08.404Z,28.28
2023-04-09T08:02:08.596Z,28.31
2023-04-09T08:03:08.686Z,28.28
2023-04-09T08:04:08.646Z,28.26
2023-04-09T08:05:08.690Z,28.22
2023-04-09T08:06:08.649Z,28.17
2023-04-09T08:07:08.715Z,28.16
2023-04-09T08:08:08.773Z,28.14
2023-04-09T08:09:08.839Z,28.13
2023-04-09T08:10:08.885Z,28.13
2023-04-09T08:11:08.933Z,28.09
2023-04-09T08:12:09.015Z,28.06
2023-04-09T08:13:11.482Z,27.97
2023-04-09T08:14:09.077Z,27.96
2023-04-09T08:15:09.110Z,27.92
2023-04-09T08:16:09.095Z,27.87
2023-04-09T08:17:09.029Z,27.88
2023-04-09T08:18:09.068Z,27.87
2023-04-09T08:19:09.048Z,27.88
2023-04-09T08:20:09.012Z,27.86
2023-04-09T08:21:09.025Z,27.83
2023-04-09T08:22:09.017Z,27.79
2023-04-09T08:23:09.048Z,27.71
2023-04-09T08:24:09.016Z,27.66
2023-04-09T08:25:09.020Z,27.69
2023-04-09T08:26:09.008Z,27.63
2023-04-09T08:27:08.996Z,27.64
2023-04-09T08:28:08.978Z,27.65
2023-04-09T08:29:08.964Z,27.62
2023-04-09T08:30:08.976Z,27.64
2023-04-09T08:31:08.967Z,27.57
2023-04-09T08:32:08.972Z,27.58
2023-04-09T08:33:09.004Z,27.53
2023-04-09T08:34:08.924Z,27.49
2023-04-09T08:35:08.957Z,27.42
2023-04-09T08:36:08.949Z,27.41
2023-04-09T08:37:08.943Z,27.40
2023-04-09T08:38:08.911Z,27.37
2023-04-09T08:39:08.920Z,27.36
2023-04-09T08:40:08.901Z,27.36
2023-04-09T08:41:08.911Z,27.38
2023-04-09T08:42:08.880Z,27.33
2023-04-09T08:43:08.870Z,27.37
2023-04-09T08:44:08.886Z,27.34
2023-04-09T08:45:08.883Z,27.31
2023-04-09T08:46:08.900Z,27.25
2023-04-09T08:47:08.903Z,27.23
2023-04-09T08:48:08.931Z,27.21
2023-04-09T08:49:08.919Z,27.29
2023-04-09T08:50:08.822Z,27.26
2023-04-09T08:51:08.832Z,27.27
2023-04-09T08:52:08.833Z,27.25
2023-04-09T08:53:08.853Z,27.29
2023-04-09T08:54:08.891Z,27.25
2023-04-09T08:55:08.931Z,27.25
2023-04-09T08:56:08.795Z,27.28
2023-04-09T08:57:08.780Z,27.23
2023-04-09T08:58:08.885Z,27.28
2023-04-09T08:59:08.799Z,27.29
2023-04-09T09:00:08.786Z,27.25
2023-04-09T09:01:08.824Z,27.32
2023-04-09T09:02:08.887Z,27.31
2023-04-09T09:03:08.880Z,27.24
2023-04-09T09:04:08.825Z,27.28
2023-04-09T09:05:08.750Z,27.26
2023-04-09T09:06:08.781Z,27.32
2023-04-09T09:07:08.731Z,27.33
2023-04-09T09:08:08.689Z,27.26
2023-04-09T09:09:08.726Z,27.32
2023-04-09T09:10:08.698Z,27.26
2023-04-09T09:11:08.706Z,27.24
2023-04-09T09:12:08.715Z,27.25
2023-04-09T09:13:08.689Z,27.26
2023-04-09T09:14:08.670Z,27.28
2023-04-09T09:15:08.672Z,27.20
2023-04-09T09:16:08.686Z,27.17
2023-04-09T09:17:08.777Z,27.24
2023-04-09T09:18:08.695Z,27.28
2023-04-09T09:19:08.628Z,27.28
2023-04-09T09:20:08.616Z,27.16
2023-04-09T09:21:08.624Z,27.16
2023-04-09T09:22:08.646Z,27.22
2023-04-09T09:23:08.607Z,27.15
2023-04-09T09:24:08.581Z,27.29
2023-04-09T09:25:08.601Z,27.20
2023-04-09T09:26:08.605Z,27.26
2023-04-09T09:27:08.589Z,27.26
2023-04-09T09:28:08.583Z,27.27
2023-04-09T09:29:08.553Z,27.31
2023-04-09T09:30:08.571Z,27.33
2023-04-09T09:31:09.299Z,27.31
2023-04-09T09:32:08.556Z,27.34
2023-04-09T09:33:08.534Z,27.33
2023-04-09T09:34:08.550Z,27.30
2023-04-09T09:35:08.612Z,27.37
2023-04-09T09:36:08.580Z,27.36
2023-04-09T09:37:09.152Z,27.30
2023-04-09T09:38:08.532Z,27.34
2023-04-09T09:39:08.494Z,27.35
2023-04-09T09:40:08.551Z,27.34
2023-04-09T09:41:08.500Z,27.39
2023-04-09T09:42:08.536Z,27.36
2023-04-09T09:43:08.482Z,27.32
2023-04-09T09:44:08.498Z,27.38
2023-04-09T09:45:08.504Z,27.29
2023-04-09T09:46:08.492Z,27.32
2023-04-09T09:47:08.501Z,27.26
2023-04-09T09:48:08.512Z,27.28
2023-04-09T09:49:08.437Z,27.25
2023-04-09T09:50:08.445Z,27.28
2023-04-09T09:51:08.489Z,27.39
2023-04-09T09:52:08.452Z,27.38
2023-04-09T09:53:08.422Z,27.28
2023-04-09T09:54:08.398Z,27.36
2023-04-09T09:55:08.424Z,27.33
2023-04-09T09:56:08.414Z,27.31
2023-04-09T09:57:08.402Z,27.26
2023-04-09T09:58:09.249Z,27.29
2023-04-09T09:59:08.378Z,27.31
2023-04-09T10:00:08.408Z,27.31
2023-04-09T10:01:08.434Z,27.28
2023-04-09T10:02:08.428Z,27.31
2023-04-09T10:03:08.452Z,27.29
2023-04-09T10:04:08.390Z,27.32
2023-04-09T10:05:08.336Z,27.29
2023-04-09T10:06:08.363Z,27.35
2023-04-09T10:07:08.361Z,27.32
2023-04-09T10:08:08.345Z,27.31
2023-04-09T10:09:09.330Z,27.29
2023-04-09T10:10:08.315Z,27.28
2023-04-09T10:11:08.294Z,27.32
2023-04-09T10:12:08.309Z,27.29
2023-04-09T10:13:08.309Z,27.28
2023-04-09T10:14:08.293Z,27.28
2023-04-09T10:15:08.368Z,27.31
2023-04-09T10:16:08.304Z,27.24
2023-04-09T10:17:08.307Z,27.27
2023-04-09T10:18:08.269Z,27.31
2023-04-09T10:19:08.278Z,27.31
2023-04-09T10:20:08.259Z,27.28
2023-04-09T10:21:08.229Z,27.29
2023-04-09T10:22:08.237Z,27.31
2023-04-09T10:23:08.206Z,27.31
2023-04-09T10:24:08.239Z,27.28
2023-04-09T10:25:08.202Z,27.28
2023-04-09T10:26:08.193Z,27.31
2023-04-09T10:27:08.178Z,27.28
2023-04-09T10:28:08.198Z,27.29
2023-04-09T10:29:08.277Z,27.32
2023-04-09T10:30:08.228Z,27.28
2023-04-09T10:31:08.171Z,27.31
2023-04-09T10:32:08.152Z,27.25
2023-04-09T10:33:08.822Z,27.27
2023-04-09T10:34:10.300Z,27.22
2023-04-09T10:35:08.168Z,27.28
2023-04-09T10:36:08.158Z,27.31
2023-04-09T10:37:08.117Z,27.32
2023-04-09T10:38:08.120Z,27.31
2023-04-09T10:39:08.098Z,27.36
2023-04-09T10:40:10.642Z,27.31
2023-04-09T10:41:08.321Z,27.35
2023-04-09T10:42:08.297Z,27.31
2023-04-09T10:43:08.344Z,27.32
2023-04-09T10:44:08.334Z,27.32
2023-04-09T10:45:08.389Z,27.31
2023-04-09T10:46:08.355Z,27.29
2023-04-09T10:47:08.327Z,27.25
2023-04-09T10:48:08.398Z,27.25
2023-04-09T10:49:08.317Z,27.28
2023-04-09T10:50:08.327Z,27.27
2023-04-09T10:51:08.316Z,27.24
2023-04-09T10:52:10.889Z,27.29
2023-04-09T10:53:08.306Z,27.28
2023-04-09T10:54:08.321Z,27.31
2023-04-09T10:55:08.303Z,27.27
2023-04-09T10:56:08.298Z,27.24
2023-04-09T10:57:08.313Z,27.25
2023-04-09T10:58:11.363Z,27.24
2023-04-09T10:59:08.241Z,27.27
2023-04-09T11:00:08.272Z,27.28
2023-04-09T11:01:08.789Z,27.28
2023-04-09T11:02:08.315Z,27.31
2023-04-09T11:03:08.490Z,27.32
2023-04-09T11:04:10.178Z,27.29
2023-04-09T11:05:08.309Z,27.32
2023-04-09T11:06:08.292Z,27.31
2023-04-09T11:07:08.308Z,27.29
2023-04-09T11:08:08.283Z,27.28
2023-04-09T11:09:08.285Z,27.32
2023-04-09T11:10:08.254Z,27.32
2023-04-09T11:11:08.286Z,27.32
2023-04-09T11:12:08.272Z,27.28
2023-04-09T11:13:08.299Z,27.31
2023-04-09T11:14:08.279Z,27.29
2023-04-09T11:15:08.277Z,27.31
2023-04-09T11:16:08.286Z,27.31
2023-04-09T11:17:08.284Z,27.32
2023-04-09T11:18:08.266Z,27.32
2023-04-09T11:19:08.269Z,27.25
2023-04-09T11:20:08.271Z,27.22
2023-04-09T11:21:08.243Z,27.28
2023-04-09T11:22:08.220Z,27.28
2023-04-09T11:23:08.275Z,27.32
2023-04-09T11:24:08.213Z,27.35
2023-04-09T11:25:08.262Z,27.26
2023-04-09T11:26:08.249Z,27.22
2023-04-09T11:27:08.254Z,27.24
2023-04-09T11:28:08.211Z,27.22
2023-04-09T11:29:08.234Z,27.28
2023-04-09T11:30:08.219Z,27.29
2023-04-09T11:31:08.306Z,27.26
2023-04-09T11:32:08.251Z,27.26
2023-04-09T11:33:08.286Z,27.22
2023-04-09T11:34:08.229Z,27.23
2023-04-09T11:35:08.307Z,27.27
2023-04-09T11:36:08.313Z,27.28
2023-04-09T11:37:08.214Z,27.23
2023-04-09T11:38:08.223Z,27.25
2023-04-09T11:39:08.218Z,27.26
2023-04-09T11:40:08.237Z,27.28
2023-04-09T11:41:08.252Z,27.23
2023-04-09T11:42:08.228Z,27.25
2023-04-09T11:43:08.226Z,27.23
2023-04-09T11:44:08.236Z,27.23
2023-04-09T11:45:08.217Z,27.22
2023-04-09T11:46:08.244Z,27.23
2023-04-09T11:47:08.261Z,27.20
2023-04-09T11:48:08.231Z,27.19
2023-04-09T11:49:08.374Z,27.22
2023-04-09T11:50:08.222Z,27.23
2023-04-09T11:51:08.235Z,27.20
2023-04-09T11:52:08.222Z,27.20
2023-04-09T11:53:09.323Z,27.23
2023-04-09T11:54:08.252Z,27.20
2023-04-09T11:55:08.298Z,27.20
2023-04-09T11:56:08.225Z,27.17
2023-04-09T11:57:08.222Z,27.17
2023-04-09T11:58:08.245Z,27.17
2023-04-09T11:59:08.251Z,27.20
2023-04-09T12:00:08.227Z,27.17
2023-04-09T12:01:08.284Z,27.17
2023-04-09T12:02:08.334Z,27.21
2023-04-09T12:03:08.662Z,27.25
2023-04-09T12:04:08.630Z,27.24
2023-04-09T12:05:08.299Z,27.26
2023-04-09T12:06:08.237Z,27.20
2023-04-09T12:07:08.255Z,27.26
2023-04-09T12:08:08.281Z,27.20
2023-04-09T12:09:08.261Z,27.22
2023-04-09T12:10:08.304Z,27.26
2023-04-09T12:11:08.255Z,27.20
2023-04-09T12:12:08.238Z,27.16
2023-04-09T12:13:08.303Z,27.19
2023-04-09T12:14:08.238Z,27.24
2023-04-09T12:15:08.263Z,27.22
2023-04-09T12:16:08.277Z,27.23
2023-04-09T12:17:08.236Z,27.20
2023-04-09T12:18:08.272Z,27.20
2023-04-09T12:19:08.269Z,27.20
2023-04-09T12:20:08.374Z,27.24
2023-04-09T12:21:08.303Z,27.24
2023-04-09T12:22:08.232Z,27.21
2023-04-09T12:23:08.263Z,27.20
2023-04-09T12:24:08.281Z,27.28
2023-04-09T12:25:08.229Z,27.26
2023-04-09T12:26:08.296Z,27.23
2023-04-09T12:27:08.406Z,27.16
2023-04-09T12:28:08.341Z,27.21
2023-04-09T12:29:08.334Z,27.21
2023-04-09T12:30:08.400Z,27.21
2023-04-09T12:31:08.340Z,27.18
2023-04-09T12:32:08.376Z,27.14
2023-04-09T12:33:10.748Z,27.17
2023-04-09T12:34:08.369Z,27.16
2023-04-09T12:35:08.436Z,27.15
2023-04-09T12:36:08.454Z,27.14
2023-04-09T12:37:08.412Z,27.14
2023-04-09T12:38:08.400Z,27.14
2023-04-09T12:39:08.390Z,27.14
2023-04-09T12:40:08.418Z,27.11
2023-04-09T12:41:08.411Z,27.18
2023-04-09T12:42:08.406Z,27.12
2023-04-09T12:43:08.422Z,27.11
2023-04-09T12:44:08.404Z,27.16
2023-04-09T12:45:08.433Z,27.11
2023-04-09T12:46:08.493Z,27.14
2023-04-09T12:47:08.432Z,27.05
2023-04-09T12:48:08.556Z,27.10
2023-04-09T12:49:08.449Z,27.07
2023-04-09T12:50:08.428Z,26.99
2023-04-09T12:51:08.426Z,27.03
2023-04-09T12:52:08.431Z,27.05
2023-04-09T12:53:08.452Z,27.05